Latest Weather Observations for Warburton

IDW60801

Issued at 4:43 am WST Tuesday 7 December 2021 (issued every 10 minutes, with the page automatically refreshed every 10 minutes)

About weather observations | Map of weather stations | Latest weather observations for WA | Other Formats
Station Details ID: 013011 Name: WARBURTON AIRFIELD Lat: -26.13 Lon: 126.58 Height: 459.0 m
Data from the previous 72 hours. | See also: Recent months at Warburton
Date/Time
WST
Temp
°C
App
Temp
°C
Dew
Point
°C
Rel
Hum
%
Delta-T
°C
Wind Press
QNH
hPa
Press
MSL
hPa
Rain since
9am
mm
Dir  Spd
km/h
Gust
km/h
Spd
kts
Gust
kts
07/04:30am 23.1 18.6 8.4 39 8.0 SE 22 35 12 19 1014.5 1011.1 0.0
07/04:00am 23.5 18.2 8.4 38 8.2 SE 26 37 14 20 1014.1 1010.7 0.0
07/03:30am 23.9 19.3 8.3 37 8.5 SE 22 33 12 18 1013.7 1010.3 0.0
07/03:00am 24.3 19.4 8.3 36 8.7 SE 24 33 13 18 1013.5 1010.1 0.0
07/02:30am 24.7 19.7 8.2 35 9.0 SE 24 35 13 19 1013.3 1009.9 0.0
07/02:00am 25.1 19.3 8.1 34 9.3 SE 28 39 15 21 1013.0 1009.6 0.0
07/01:30am 25.4 19.6 8.0 33 9.5 SE 28 48 15 26 1012.7 1009.3 0.0
07/01:28am 25.5 19.7 8.1 33 9.5 SE 28 48 15 26 1012.6 1009.2 0.0
07/01:00am 25.8 19.5 7.4 31 10.0 SE 30 43 16 23 1012.5 1009.1 0.0
07/12:30am 26.4 20.0 6.9 29 10.5 SE 30 41 16 22 1012.5 1009.1 0.0
07/12:00am 26.9 20.0 6.3 27 11.0 SE 32 46 17 25 1012.2 1008.7 0.0
 
Date/Time
WST
Temp
°C
App
Temp
°C
Dew
Point
°C
Rel
Hum
%
Delta-T
°C
Wind Press
QNH
hPa
Press
MSL
hPa
Rain since
9am
mm
Dir  Spd
km/h
Gust
km/h
Spd
kts
Gust
kts
06/11:30pm 27.6 20.8 6.9 27 11.2 SE 32 46 17 25 1012.3 1008.9 0.0
06/11:00pm 28.1 22.4 8.4 29 11.0 SE 28 41 15 22 1012.0 1008.6 0.0
06/10:30pm 28.7 24.2 9.9 31 10.8 SE 24 35 13 19 1012.3 1008.9 0.0
06/10:00pm 29.3 24.4 9.9 30 11.1 SE 26 37 14 20 1012.3 1008.9 0.0
06/09:30pm 29.5 25.8 10.1 30 11.2 SE 20 30 11 16 1012.2 1008.7 0.0
06/09:00pm 30.3 24.4 9.2 27 12.0 SE 30 43 16 23 1012.0 1008.6 0.0
06/08:30pm 31.1 26.4 6.2 21 13.6 SSE 20 30 11 16 1011.4 1008.0 0.0
06/08:00pm 31.4 26.8 6.5 21 13.7 SSE 20 30 11 16 1011.1 1007.7 0.0
06/07:30pm 31.8 27.3 6.1 20 14.0 SSE 19 30 10 16 1010.7 1007.3 0.0
06/07:00pm 32.3 27.9 6.5 20 14.2 SSE 19 26 10 14 1010.5 1007.1 0.0
06/06:30pm 33.0 27.6 6.3 19 14.7 SSE 24 32 13 17 1010.0 1006.5 0.0
06/06:00pm 33.8 29.1 6.2 18 15.3 SSE 20 32 11 17 1009.6 1006.2 0.0
06/05:30pm 34.6 29.9 6.0 17 15.8 SSE 20 35 11 19 1009.2 1005.8 0.0
06/05:00pm 35.4 30.8 5.8 16 16.4 SSE 19 28 10 15 1008.8 1005.4 0.0
06/04:30pm 35.7 31.0 6.0 16 16.5 S 20 30 11 16 1008.5 1005.1 0.0
06/04:00pm 35.7 30.6 6.0 16 16.6 SSE 22 37 12 20 1008.5 1005.1 0.0
06/03:30pm 35.8 31.3 6.1 16 16.6 SSE 19 35 10 19 1008.5 1005.1 0.0
06/03:00pm 36.5 32.3 5.7 15 17.2 SSW 17 28 9 15 1008.4 1005.0 0.0
06/02:30pm 36.9 32.2 6.0 15 17.3 S 20 33 11 18 1008.6 1005.2 0.0
06/02:00pm 36.5 32.7 5.7 15 17.1 SSE 15 30 8 16 1008.9 1005.5 0.0
06/01:30pm 35.7 32.3 6.0 16 16.5 E 13 24 7 13 1009.1 1005.7 0.0
06/01:00pm 35.4 31.2 5.8 16 16.4 SSE 17 24 9 13 1009.5 1006.1 0.0
06/12:30pm 35.5 31.5 6.7 17 16.2 ENE 17 26 9 14 1009.9 1006.4 0.0
06/12:00pm 34.9 31.2 6.2 17 16.0 S 15 22 8 12 1010.2 1006.7 0.0
06/11:30am 34.7 31.1 6.9 18 15.6 E 15 24 8 13 1010.4 1007.0 0.0
06/11:00am 34.2 30.9 9.4 22 14.4 SSE 17 33 9 18 1010.7 1007.3 0.0
06/10:30am 33.8 30.6 9.8 23 14.0 SE 17 30 9 16 1011.3 1007.9 0.0
06/10:00am 32.8 29.9 9.6 24 13.5 ESE 15 24 8 13 1011.6 1008.2 0.0
06/09:30am 32.2 29.1 10.3 26 12.8 E 17 24 9 13 1011.8 1008.4 0.0
06/09:00am 30.8 27.7 10.2 28 12.0 E 17 26 9 14 1012.0 1008.6 0.0
06/08:30am 30.5 27.3 9.9 28 11.9 E 17 26 9 14 1012.2 1008.7 0.0
06/08:00am 29.3 25.9 10.4 31 10.9 E 19 26 10 14 1012.4 1009.0 0.0
06/07:30am 28.0 24.4 10.7 34 10.0 ESE 20 28 11 15 1012.6 1009.2 0.0
06/07:00am 26.8 23.5 11.7 39 8.8 ESE 20 28 11 15 1012.4 1009.0 0.0
06/06:30am 25.8 22.2 11.9 42 8.1 ESE 22 30 12 16 1012.4 1009.0 0.0
06/06:00am 24.7 21.2 12.3 46 7.3 SE 22 32 12 17 1012.0 1008.6 0.0
06/05:30am 23.7 20.1 12.0 47 6.8 SE 22 32 12 17 1011.9 1008.5 0.0
06/05:00am 23.1 20.1 12.1 50 6.4 SE 19 24 10 13 1011.7 1008.3 0.0
06/04:30am 23.0 20.3 11.7 49 6.5 SSE 17 24 9 13 1011.4 1008.0 0.0
06/04:00am 22.9 20.5 11.3 48 6.6 SSE 15 20 8 11 1011.1 1007.7 0.0
06/03:30am 23.1 21.1 11.5 48 6.6 SSE 13 19 7 10 1010.8 1007.4 0.0
06/03:00am 23.6 21.5 11.3 46 7.0 SSE 13 20 7 11 1010.6 1007.2 0.0
06/02:30am 23.8 21.2 10.8 44 7.4 SSE 15 20 8 11 1010.5 1007.1 0.0
06/02:00am 24.1 21.0 10.4 42 7.7 SSE 17 20 9 11 1010.4 1007.0 0.0
06/01:30am 23.9 21.7 9.5 40 8.0 S 11 17 6 9 1010.7 1007.3 0.0
06/01:00am 23.9 21.9 8.7 38 8.3 S 9 15 5 8 1010.9 1007.5 0.0
06/12:30am 24.6 21.7 8.1 35 9.0 SSW 13 19 7 10 1011.1 1007.7 0.0
06/12:00am 25.0 22.0 7.6 33 9.4 SSW 13 15 7 8 1011.2 1007.8 0.0
 
Date/Time
WST
Temp
°C
App
Temp
°C
Dew
Point
°C
Rel
Hum
%
Delta-T
°C
Wind Press
QNH
hPa
Press
MSL
hPa
Rain since
9am
mm
Dir  Spd
km/h
Gust
km/h
Spd
kts
Gust
kts
05/11:30pm 26.2 23.6 7.7 31 10.1 S 11 15 6 8 1011.3 1007.9 0.0
05/11:00pm 27.0 23.8 6.9 28 10.9 SSE 13 19 7 10 1011.3 1007.9 0.0
05/10:30pm 27.2 23.8 6.0 26 11.3 S 13 19 7 10 1011.3 1007.9 0.0
05/10:00pm 27.6 24.2 5.8 25 11.6 SSE 13 20 7 11 1011.3 1007.9 0.0
05/09:30pm 28.9 24.3 5.7 23 12.4 SSE 19 26 10 14 1011.3 1007.9 0.0
05/09:00pm 29.1 25.3 5.9 23 12.5 S 15 17 8 9 1011.0 1007.6 0.0
05/08:30pm 29.8 26.4 5.8 22 12.9 SSE 13 15 7 8 1010.5 1007.1 0.0
05/08:00pm 30.5 27.6 6.4 22 13.2 SSE 11 15 6 8 1010.2 1006.7 0.0
05/07:30pm 31.6 28.3 6.6 21 13.8 SSE 13 17 7 9 1010.0 1006.5 0.0
05/07:00pm 32.3 29.2 7.2 21 14.0 SSE 13 19 7 10 1009.6 1006.2 0.0
05/06:30pm 33.5 29.5 6.7 19 14.9 S 17 24 9 13 1009.3 1005.9 0.0
05/06:00pm 34.8 29.9 5.3 16 16.2 S 20 32 11 17 1008.9 1005.5 0.0
05/05:30pm 35.9 29.9 3.2 13 17.4 SSW 24 33 13 18 1008.5 1005.1 0.0
05/05:00pm 36.4 31.2 3.6 13 17.7 SSW 20 30 11 16 1008.3 1004.8 0.0
05/04:30pm 36.8 32.4 4.9 14 17.5 SSW 17 26 9 14 1008.2 1004.7 0.0
05/04:00pm 36.6 32.4 5.8 15 17.2 SSW 17 30 9 16 1008.2 1004.7 0.0
05/03:30pm 36.7 32.2 5.9 15 17.2 S 19 35 10 19 1008.3 1004.8 0.0
05/03:00pm 36.4 32.0 4.6 14 17.4 S 17 26 9 14 1008.6 1005.2 0.0
05/02:30pm 36.5 33.2 6.6 16 16.8 NNW 13 20 7 11 1009.0 1005.6 0.0
05/02:00pm 36.6 32.4 5.8 15 17.2 SW 17 26 9 14 1009.4 1006.0 0.0
05/01:30pm 36.6 33.4 6.7 16 16.9 SSW 13 22 7 12 1009.7 1006.3 0.0
05/01:00pm 35.6 33.4 9.2 20 15.4 SSE 11 19 6 10 1010.3 1006.8 0.0
05/12:30pm 35.5 33.8 9.8 21 15.1 SSW 9 17 5 9 1010.7 1007.3 0.0
05/12:00pm 34.5 33.0 10.4 23 14.3 E 9 17 5 9 1011.2 1007.8 0.0
05/11:30am 33.6 31.2 10.2 24 13.7 ENE 13 19 7 10 1011.8 1008.4 0.0
05/11:00am 33.3 31.9 12.3 28 12.7 ESE 11 20 6 11 1012.3 1008.9 0.0
05/10:30am 32.6 31.3 13.8 32 11.6 E 13 22 7 12 1012.9 1009.5 0.0
05/10:00am 31.1 29.6 14.3 36 10.4 ESE 15 24 8 13 1013.3 1009.9 0.0
05/09:30am 29.9 28.1 14.4 38 9.6 ESE 17 24 9 13 1013.6 1010.2 0.0
05/09:00am 28.8 27.4 14.6 42 8.8 ESE 15 24 8 13 1014.1 1010.7 2.2
05/08:30am 27.1 25.2 14.1 44 7.9 SE 17 24 9 13 1014.3 1011.0 2.2
05/08:00am 25.9 24.8 15.3 52 6.5 SE 15 20 8 11 1014.8 1011.4 2.2
05/07:30am 24.4 22.7 14.8 55 5.8 ESE 17 24 9 13 1014.7 1011.3 2.2
05/07:00am 22.9 21.7 15.0 61 4.8 SE 15 20 8 11 1015.2 1011.8 2.2
05/06:32am 20.9 21.3 15.2 70 3.4 ESE 7 15 4 8 1015.1 1011.7 2.2
05/06:30am 20.9 21.3 15.2 70 3.4 ESE 7 11 4 6 1015.2 1011.8 2.2
05/06:05am 20.9 19.6 15.7 72 3.2 SE 17 22 9 12 1014.7 1011.3 2.2
05/06:00am 20.4 18.6 15.4 73 3.0 ESE 19 28 10 15 1014.3 1011.0 2.2
05/05:30am 19.8 19.6 15.7 77 2.5 ESE 11 19 6 10 1014.5 1011.1 2.2
05/05:00am 19.1 19.3 15.8 81 2.0 S 9 15 5 8 1014.7 1011.3 2.2
05/04:30am 19.0 17.3 15.7 81 2.0 SE 19 26 10 14 1013.5 1010.1 2.2
05/04:14am 18.9 17.3 16.1 84 1.7 ESE 19 26 10 14 1013.4 1010.0 2.2
05/04:00am 19.8 19.4 16.3 80 2.1 S 13 17 7 9 1014.3 1011.0 1.2
05/03:47am 19.3 19.2 16.9 86 1.5 S 13 15 7 8 1013.8 1010.4 1.2
05/03:30am 19.7 20.2 16.5 82 2.0 S 9 13 5 7 1013.8 1010.4 1.0
05/03:00am 19.9 20.8 16.2 79 2.3 SSE 6 9 3 5 1013.8 1010.4 0.2
05/02:30am 20.2 21.6 15.4 74 2.9 SE 2 9 1 5 1013.9 1010.5 0.2
05/02:13am 20.3 19.7 15.7 75 2.8 S 13 17 7 9 1013.1 1009.7 0.2
05/02:00am 20.5 19.2 15.9 75 2.8 SSE 17 26 9 14 1012.8 1009.4 0.2
05/01:55am 20.6 19.7 15.8 74 2.9 SSE 15 20 8 11 1012.5 1009.1 0.2
05/01:33am 20.5 18.9 16.1 76 2.7 S 19 24 10 13 1013.0 1009.6 0.2
05/01:30am 21.0 19.2 15.5 71 3.3 S 19 24 10 13 1013.1 1009.7 0.2
05/01:07am 22.7 21.3 13.5 56 5.4 S 13 22 7 12 1013.5 1010.1 0.2
05/01:00am 22.5 20.5 13.8 58 5.2 SSW 17 28 9 15 1013.0 1009.6 0.2
05/12:36am 24.0 20.9 12.3 48 6.8 E 20 30 11 16 1012.7 1009.3 0.0
05/12:30am 24.1 20.7 12.4 48 6.8 ESE 22 30 12 16 1012.6 1009.2 0.0
05/12:15am 24.2 21.1 12.2 47 7.0 E 20 30 11 16 1012.5 1009.1 0.0
05/12:00am 23.7 21.6 12.4 49 6.6 ESE 15 26 8 14 1012.7 1009.3 0.0
 
Date/Time
WST
Temp
°C
App
Temp
°C
Dew
Point
°C
Rel
Hum
%
Delta-T
°C
Wind Press
QNH
hPa
Press
MSL
hPa
Rain since
9am
mm
Dir  Spd
km/h
Gust
km/h
Spd
kts
Gust
kts
04/11:30pm 23.9 21.0 12.2 48 6.8 ESE 19 28 10 15 1013.2 1009.8 0.0
04/11:00pm 24.0 21.9 12.3 48 6.8 ESE 15 24 8 13 1014.3 1011.0 0.0
04/10:30pm 24.4 20.8 12.0 46 7.2 E 22 33 12 18 1014.1 1010.7 0.0
04/10:11pm 24.9 20.4 11.5 43 7.7 ESE 26 37 14 20 1014.5 1011.1 0.0
04/10:00pm 24.9 19.3 11.5 43 7.7 ESE 32 44 17 24 1014.3 1011.0 0.0
04/09:49pm 24.9 19.1 11.5 43 7.7 E 33 52 18 28 1014.1 1010.7 0.0
04/09:45pm 24.9 18.3 11.5 43 7.7 ESE 37 52 20 28 1014.5 1011.1 0.0
04/09:30pm 24.8 18.3 11.7 44 7.6 ESE 37 56 20 30 1013.9 1010.5 0.0
04/09:11pm 25.3 18.6 11.1 41 8.2 ESE 37 56 20 30 1014.3 1011.0 0.0
04/09:00pm 25.4 18.0 11.2 41 8.2 ESE 41 57 22 31 1013.7 1010.3 0.0
04/08:33pm 25.4 17.6 11.2 41 8.2 ESE 43 61 23 33 1013.7 1010.3 0.0
04/08:30pm 25.4 18.0 11.2 41 8.2 ESE 41 57 22 31 1013.7 1010.3 0.0
04/08:05pm 25.3 19.7 11.5 42 8.0 ESE 32 50 17 27 1014.9 1011.5 0.0
04/08:00pm 25.2 20.0 11.7 43 7.8 E 30 46 16 25 1015.3 1011.9 0.0
04/07:30pm 25.0 17.5 12.2 44 7.5 ESE 43 61 23 33 1014.2 1010.9 0.0
04/07:27pm 25.0 18.3 12.2 44 7.5 ESE 39 59 21 32 1014.0 1010.6 0.0
04/07:09pm 25.1 19.9 12.7 46 7.3 ESE 32 50 17 27 1015.3 1011.9 0.0
04/07:00pm 25.3 19.2 11.8 43 7.8 SE 35 52 19 28 1015.2 1011.8 0.0
04/06:56pm 25.3 18.5 11.8 43 7.8 SE 39 52 21 28 1015.0 1011.6 0.0
04/06:44pm 25.7 19.5 11.5 41 8.2 SE 35 56 19 30 1015.3 1011.9 0.0
04/06:30pm 25.5 19.3 11.3 41 8.2 SE 35 52 19 28 1015.3 1011.9 0.0
04/06:00pm 25.4 18.6 11.9 43 7.9 SE 39 57 21 31 1015.1 1011.7 0.0
04/05:30pm 25.8 19.0 11.9 42 8.1 SSE 39 57 21 31 1015.5 1012.1 0.0
04/05:00pm 25.9 19.1 12.0 42 8.1 SSE 39 59 21 32 1015.1 1011.7 0.0
04/04:30pm 28.2 21.1 12.1 37 9.5 SSE 41 59 22 32 1014.7 1011.3 0.0
04/04:00pm 28.9 21.7 11.9 35 10.1 SSE 41 61 22 33 1014.5 1011.1 0.0
04/03:30pm 30.1 22.7 12.5 34 10.6 SSE 43 63 23 34 1014.6 1011.2 0.0
04/03:03pm 30.0 22.5 12.0 33 10.7 SSE 43 61 23 33 1014.8 1011.4 0.0
04/03:00pm 30.1 23.0 12.1 33 10.7 SSE 41 57 22 31 1014.8 1011.4 0.0
04/02:30pm 31.0 24.4 11.4 30 11.6 SSE 37 57 20 31 1014.3 1011.0 0.0
04/02:03pm 32.3 25.1 9.2 24 13.3 SE 37 56 20 30 1014.1 1010.7 0.0
04/02:00pm 32.6 25.2 10.0 25 13.2 SE 39 56 21 30 1014.1 1010.7 0.0
04/01:50pm 32.7 26.1 10.1 25 13.2 SE 35 54 19 29 1014.0 1010.6 0.0
04/01:30pm 32.6 25.2 10.0 25 13.2 SE 39 50 21 27 1014.1 1010.7 0.0
04/01:00pm 31.9 24.8 9.4 25 13.0 SE 37 54 20 29 1014.6 1011.2 0.0
04/12:39pm 31.4 23.2 8.4 24 13.0 SE 41 61 22 33 1014.7 1011.3 0.0
04/12:30pm 31.0 22.5 8.7 25 12.7 SE 43 56 23 30 1015.0 1011.6 0.0
04/12:00pm 30.3 22.2 8.7 26 12.2 SE 41 56 22 30 1015.6 1012.2 0.0
04/11:43am 30.5 24.2 8.8 26 12.3 SSE 32 54 17 29 1016.0 1012.6 0.0
04/11:30am 29.0 22.6 8.7 28 11.4 SE 32 44 17 24 1017.3 1013.9 0.0
04/11:27am 28.8 22.2 8.5 28 11.4 SE 33 50 18 27 1017.0 1013.6 0.0
04/11:00am 29.0 21.3 8.7 28 11.4 ESE 39 57 21 31 1015.9 1012.5 0.0
04/10:30am 27.7 20.1 9.0 31 10.5 ESE 39 61 21 33 1015.9 1012.5 0.0
04/10:01am 26.3 19.4 8.8 33 9.7 ESE 35 54 19 29 1015.9 1012.5 0.0
04/10:00am 26.5 19.2 8.9 33 9.8 ESE 37 54 20 29 1016.0 1012.6 0.0
04/09:35am 26.1 18.8 8.6 33 9.7 ESE 37 56 20 30 1015.6 1012.2 0.0
04/09:30am 26.2 18.9 8.7 33 9.7 ESE 37 50 20 27 1016.3 1013.0 0.0
04/09:20am 26.5 20.5 8.5 32 10.0 ESE 30 52 16 28 1016.4 1013.1 0.0
04/09:00am 26.7 19.7 8.6 32 10.0 SE 35 48 19 26 1017.1 1013.7 0.0
04/08:34am 27.2 18.7 8.6 31 10.3 SE 43 61 23 33 1016.3 1013.0 0.0
04/08:30am 27.0 18.3 8.4 31 10.3 SE 44 61 24 33 1016.0 1012.6 0.0
04/08:09am 26.6 17.9 8.6 32 10.0 ESE 44 63 24 34 1015.7 1012.3 0.0
04/08:00am 26.6 18.0 8.1 31 10.2 ESE 43 57 23 31 1015.8 1012.4 0.0
04/07:32am 25.8 18.3 7.9 32 9.8 ESE 37 61 20 33 1016.0 1012.6 0.0
04/07:30am 25.8 18.7 7.9 32 9.8 ESE 35 52 19 28 1016.0 1012.6 0.0
04/07:00am 25.4 18.9 8.0 33 9.5 SE 32 50 17 27 1015.7 1012.3 0.0
04/06:31am 24.7 18.1 7.8 34 9.1 SE 32 52 17 28 1016.2 1012.9 0.0
04/06:30am 24.7 18.2 8.2 35 9.0 SE 32 46 17 25 1016.2 1012.9 0.0
04/06:00am 24.4 18.9 7.5 34 9.1 SE 26 39 14 21 1016.6 1013.3 0.0
04/05:30am 24.3 16.7 7.4 34 9.1 SE 37 50 20 27 1015.4 1012.0 0.0
04/05:00am 24.3 18.1 7.9 35 8.9 SE 30 48 16 26 1015.7 1012.3 0.0

Other formats

Comma delimited format used in spreadsheet applications
http://www.bom.gov.au/fwo/IDW60801/IDW60801.94457.axf

JavaScript Object Notation format (JSON) in row-major order
http://www.bom.gov.au/fwo/IDW60801/IDW60801.94457.json

Data quality

Most of these data are generated automatically and are frequently updated. Quality checks on data are not normally performed. It is possible for incorrect values to appear. Refer to information at About Latest Weather Observations and please check the disclaimer before using these data.